Historyczne dane pomiarowe

Dodano dane terminowe – wersja testowa.

Dane z okresu 1951-2019

Wersja bazy: 1.34 [2019-03-16, lista zmian], aktualizacja planowana na 2019-04-15

Dane meteo z obszaru Polski uzyskane na podstawie danych udostępnionych przez Instytut Meteorologii i Gospodarki Wodnej – Państwowy Instytut Badawczy.

 

Wybierz Datę:    

       

TemperaturaWilgotnośćWiatrCiśnienieOpadyŚniegCzas trwania zjawisk
 Stacja t tx tn tng RH VA  wxwx mslp ppp RRR   cm mm wxwxwxwxwxwxwx
1961-08-14 15.1 19.4 8.8- 75.8- 4.3 0.7---- 0.0------------
1961-08-13 12.6 19.5 11.8- 93.0- 7.7 1.7---- 6.8------------
1961-08-12 19.5 24.5 16.7- 88.3- 6.7 1.7---- 22.3------------
1961-08-11 24.8 33.6 21.2- 65.0- 1.3 1.3---- 0.0------------
1961-08-10 24.9 31.6 18.0- 72.3- 3.3 1.0---- 0.0------------
1961-08-09 22.3 29.7 16.7- 85.0- 5.7 1.0---- 5.0------------
1961-08-08 21.3 26.5 17.6- 77.8- 5.3 1.3---- 0.0------------
1961-08-07 23.4 31.2 18.9- 55.8- 0.3 1.3---- 0.0------------
1961-08-06 23.7 30.1 15.9- 61.0- 1.0 2.0---- 0.0------------
1961-08-05 18.9 24.1 14.8- 76.5- 3.3 1.0---- 0.0------------
1961-08-04 16.2 20.1 11.9- 78.8- 3.7 0.7---- 0.0------------
1961-08-03 17.0 22.5 14.5- 87.8- 7.3 0.7---- 14.9------------
1961-08-02 20.0 26.0 11.2- 65.8- 2.0 1.3---- 0.0------------
1961-08-01 16.5 22.0 12.0- 74.3- 4.7 2.7---- 0.0------------
1961-07-31 13.7 17.3 9.8- 87.3- 7.7 2.3---- 0.4------------
1961-07-30 10.8 11.9 9.8- 97.8- 8.0 2.7---- 29.6------------
1961-07-29 12.9 19.1 10.8- 96.3- 8.0 0.7---- 26.5------------
1961-07-28 21.4 28.6 16.5- 76.0- 4.3 2.0---- 8.7------------
1961-07-27 22.4 28.0 15.3- 54.3- 4.0 2.3---- 1.4------------
1961-07-26 17.4 23.2 11.1- 61.8- 1.0 1.3---- 0.0------------
1961-07-25 13.5 16.8 9.0- 75.0- 8.0 1.3---- 0.0------------
1961-07-24 15.1 18.8 12.3- 73.0- 7.7 2.0---- 0.0------------
1961-07-23 15.3 20.5 11.5- 86.5- 6.7 0.3---- 0.3------------
1961-07-22 15.3 18.0 12.4- 74.3- 6.0 1.3---- 0.6------------
1961-07-21 15.1 20.5 11.1- 81.0- 6.0 1.7---- 1.6------------
1961-07-20 13.8 16.9 10.1- 91.5- 8.0 0.7---- 8.2------------
1961-07-19 14.0 19.6 9.9- 91.5- 6.3 0.7---- 0.5------------
1961-07-18 15.9 20.3 9.9- 63.3- 4.7 1.0---- 0.0------------
1961-07-17 14.9 22.5 12.3- 78.0- 4.7 3.0---- 4.0------------
1961-07-16 18.7 22.5 14.1- 67.8- 2.3 3.3---- 1.7------------
1961-07-15 19.0 24.3 12.2- 72.3- 5.3 2.7---- 0.4------------
1961-07-14 15.4 20.0 13.4- 75.5- 5.0 2.0---- 0.2------------
1961-07-13 20.7 27.8 16.4- 75.5- 1.7 8.0---- 5.0------------
1961-07-12 20.9 27.0 13.9- 63.3- 5.0 2.3---- 3.1------------
1961-07-11 16.0 20.9 10.2- 71.8- 4.0 1.3---- 0.0------------
1961-07-10 14.1 19.0 11.9- 80.3- 7.7 1.0---- 2.3------------
1961-07-09 16.0 23.2 10.7- 72.0- 5.7 1.0---- 1.3------------
1961-07-08 15.2 21.0 8.7- 73.5- 5.0 0.7---- 0.0------------
1961-07-07 13.9 18.0 8.0- 78.3- 7.0 0.7---- 0.0------------
1961-07-06 13.5 17.1 7.3- 69.0- 3.7 2.0---- 0.0------------
1961-07-05 14.4 19.6 12.9- 76.5- 6.7 1.7---- 0.1------------
1961-07-04 22.1 29.5 16.9- 77.5- 4.0 1.0---- 7.8------------
1961-07-03 22.5 31.0 13.0- 57.0- 0.0 0.7---- 0.0------------
1961-07-02 20.3 27.6 11.8- 70.3- 0.3 1.0---- 0.0------------
1961-07-01 19.5 26.0 11.6- 71.0- 1.7 1.7---- 0.0------------
1961-06-30 16.7 22.3 12.2- 78.5- 3.0 1.7---- 0.0------------
1961-06-29 15.7 20.5 10.2- 67.8- 4.0 2.0---- 0.0------------
1961-06-28 14.2 21.3 12.1- 87.3- 7.0 3.7---- 6.4------------
1961-06-27 23.6 32.1 17.4- 71.8- 2.7 0.7---- 16.4------------
1961-06-26 22.7 30.3 16.4- 66.3- 4.7 2.0---- 0.0------------
1961-06-25 23.3 30.3 12.6- 59.8- 1.3 1.3---- 0.0------------
1961-06-24 20.0 25.0 11.4- 62.3- 3.3 2.0---- 0.0------------
1961-06-23 19.1 22.5 15.9- 71.8- 5.7 1.3---- 0.0------------
1961-06-22 20.0 23.1 11.7- 58.5- 1.3 1.3---- 3.9------------
1961-06-21 17.9 23.0 7.3- 57.0- 1.0 1.0---- 0.0------------
1961-06-20 15.9 20.8 12.4- 62.3- 4.0 2.0---- 0.0------------
1961-06-19 20.0 27.8 16.0- 75.5- 3.7 1.3---- 0.0------------
1961-06-18 19.4 25.3 10.1- 70.3- 2.3 0.7---- 0.0------------
1961-06-17 16.0 21.6 7.5- 62.5- 1.0 1.3---- 0.0------------
1961-06-16 14.9 19.5 10.0- 74.3- 4.3 0.7---- 0.0------------
246.7 ms

 

Źródłem pochodzenia danych jest Instytut Meteorologii i Gospodarki Wodnej – Państwowy Instytut Badawczy. Dane Instytutu Meteorologii i Gospodarki Wodnej – Państwowego Instytutu Badawczego zostały przetworzone.

Dane źródłowe można odnaleźć na stronie https://dane.imgw.pl